Juneau International Airport Juneau US
ICAO: PAJN
IATA: JNU
Category: Medium
Scheduled Services:

Elevation: 21 ft
TransAlt. 18000 ft.

Airport Communications:
ATIS:135.2
TWEB:114
ANCHORAGE CNTR:133.9
CTAF:118.7
RDO:122.2
GND:121.9
RDO:122.15
NAT GD OPS:124.65
TWR:118.7
UNICOM:122.95

PAJN Zoom In..

If you have problems with the map follow the link
https://www.worldairports.se/pages/airport.php?
ICAO=PAJN

Runways:

(A) RW 08 length 8457 ft width 150 ft
---- / hdg 85

(B) RW 26 length 8457 ft width 150 ft
---- / hdg 265

Location; PAJN
Day. 23 / Time. 16.53 Zulu
* Altimeter: 29.46
* Temperature: 10° c. 50°f.
* Wind from: 070° Speed 10 kn.
Dewpoint: 08° c.
Visibility: 10 Statute Miles.
Clouds: Scattered 5500 ft.
Clouds: Broken 7500 ft.
Clouds: Overcast 9500 ft.
Conditions: Light Rain.

PAJN 231653Z 07010KT 10SM -RA SCT055 BKN075 OVC095 10/08 A2946 RMK AO2 RAB06 SLP975 P0000 T01000083


Wind From 070°
Speed 10 kn.

 
 
jpsmedia.com for Web Design worldairports.se 2018   terms of use